Hamilton City, California
Current Conditions -  °F | °C
As of 1:50 PM on Sunday 23 Nov 2014 (Local Time) from KCIC Reporting Station
Overcast Overcast  
Wind Chill: 57°   Ceiling: 15000
Heat Index: 57°   Visibility: 80mi
Dew Point: 41°   Wind: 9mph
Humidity: 55%   Direction: 320°NW
Pressure: 30.27"   Gusts: NA
Location:  39.74°N, 122.02°W
Report Text: KCIC 232150Z 32008KT 80SM FEW060 BKN150 OVC200 14/05 A3027
Loading
Personal Weather Stations






























Interactive Weather Map New forecast layout! Learn more

10-Day Weather Forecast

Advertisements
Track Severe Weather on mobile